sensor_id;sensor_type;location;lat;lon;timestamp;P1;durP1;ratioP1;P2;durP2;ratioP2
59239;SDS011;45010;53.640;10.578;2023-05-27T00:00:17;3.60;;;1.50;;
59239;SDS011;45010;53.640;10.578;2023-05-27T00:03:18;2.45;;;1.20;;
59239;SDS011;45010;53.640;10.578;2023-05-27T00:06:18;3.42;;;1.38;;
59239;SDS011;45010;53.640;10.578;2023-05-27T00:09:19;4.60;;;1.48;;
59239;SDS011;45010;53.640;10.578;2023-05-27T00:12:19;2.83;;;1.35;;
59239;SDS011;45010;53.640;10.578;2023-05-27T00:15:19;2.78;;;1.83;;
59239;SDS011;45010;53.640;10.578;2023-05-27T00:18:20;3.67;;;1.63;;
59239;SDS011;45010;53.640;10.578;2023-05-27T00:21:21;3.03;;;1.50;;
59239;SDS011;45010;53.640;10.578;2023-05-27T00:24:21;3.38;;;1.60;;
59239;SDS011;45010;53.640;10.578;2023-05-27T00:27:22;3.55;;;1.67;;
59239;SDS011;45010;53.640;10.578;2023-05-27T00:30:22;3.38;;;1.42;;
59239;SDS011;45010;53.640;10.578;2023-05-27T00:33:23;3.00;;;1.42;;
59239;SDS011;45010;53.640;10.578;2023-05-27T00:36:23;2.42;;;1.45;;
59239;SDS011;45010;53.640;10.578;2023-05-27T00:39:23;4.90;;;1.70;;
59239;SDS011;45010;53.640;10.578;2023-05-27T00:42:24;3.53;;;1.35;;
59239;SDS011;45010;53.640;10.578;2023-05-27T00:45:24;3.22;;;1.50;;
59239;SDS011;45010;53.640;10.578;2023-05-27T00:48:25;3.38;;;1.85;;
59239;SDS011;45010;53.640;10.578;2023-05-27T00:51:25;3.38;;;1.30;;
59239;SDS011;45010;53.640;10.578;2023-05-27T00:54:26;2.92;;;1.58;;
59239;SDS011;45010;53.640;10.578;2023-05-27T00:57:26;2.58;;;1.27;;
59239;SDS011;45010;53.640;10.578;2023-05-27T01:00:26;2.45;;;1.20;;
59239;SDS011;45010;53.640;10.578;2023-05-27T01:03:27;2.25;;;1.10;;
59239;SDS011;45010;53.640;10.578;2023-05-27T01:06:40;1.83;;;1.20;;
59239;SDS011;45010;53.640;10.578;2023-05-27T01:13:31;2.67;;;1.30;;
59239;SDS011;45010;53.640;10.578;2023-05-27T01:16:36;2.70;;;1.50;;
59239;SDS011;45010;53.640;10.578;2023-05-27T01:19:44;3.42;;;1.63;;
59239;SDS011;45010;53.640;10.578;2023-05-27T01:22:45;6.25;;;1.60;;
59239;SDS011;45010;53.640;10.578;2023-05-27T01:25:47;3.70;;;1.23;;
59239;SDS011;45010;53.640;10.578;2023-05-27T01:28:47;3.40;;;1.50;;
59239;SDS011;45010;53.640;10.578;2023-05-27T01:31:53;2.17;;;1.17;;
59239;SDS011;45010;53.640;10.578;2023-05-27T01:35:17;3.58;;;1.30;;
59239;SDS011;45010;53.640;10.578;2023-05-27T01:38:24;3.45;;;1.50;;
59239;SDS011;45010;53.640;10.578;2023-05-27T01:41:26;3.17;;;1.40;;
59239;SDS011;45010;53.640;10.578;2023-05-27T01:44:28;2.72;;;1.13;;
59239;SDS011;45010;53.640;10.578;2023-05-27T01:47:30;3.85;;;1.50;;
59239;SDS011;45010;53.640;10.578;2023-05-27T01:50:30;3.60;;;1.30;;
59239;SDS011;45010;53.640;10.578;2023-05-27T01:53:31;2.10;;;1.27;;
59239;SDS011;45010;53.640;10.578;2023-05-27T01:56:32;3.05;;;1.20;;
59239;SDS011;45010;53.640;10.578;2023-05-27T01:59:32;3.00;;;1.38;;
59239;SDS011;45010;53.640;10.578;2023-05-27T02:02:32;2.35;;;1.38;;
59239;SDS011;45010;53.640;10.578;2023-05-27T02:05:33;2.35;;;1.30;;
59239;SDS011;45010;53.640;10.578;2023-05-27T02:08:33;2.10;;;1.40;;
59239;SDS011;45010;53.640;10.578;2023-05-27T02:11:34;2.50;;;1.27;;
59239;SDS011;45010;53.640;10.578;2023-05-27T02:14:34;2.95;;;1.40;;
59239;SDS011;45010;53.640;10.578;2023-05-27T02:17:38;2.25;;;1.10;;
59239;SDS011;45010;53.640;10.578;2023-05-27T02:20:38;2.30;;;1.20;;
59239;SDS011;45010;53.640;10.578;2023-05-27T02:23:39;2.15;;;1.17;;
59239;SDS011;45010;53.640;10.578;2023-05-27T02:26:39;1.85;;;1.10;;
59239;SDS011;45010;53.640;10.578;2023-05-27T02:29:40;3.42;;;1.35;;
59239;SDS011;45010;53.640;10.578;2023-05-27T02:32:40;3.65;;;1.60;;
59239;SDS011;45010;53.640;10.578;2023-05-27T02:35:41;2.30;;;1.20;;
59239;SDS011;45010;53.640;10.578;2023-05-27T02:38:41;2.58;;;1.25;;
59239;SDS011;45010;53.640;10.578;2023-05-27T02:41:41;3.05;;;1.20;;
59239;SDS011;45010;53.640;10.578;2023-05-27T02:44:42;2.10;;;1.30;;
59239;SDS011;45010;53.640;10.578;2023-05-27T02:47:42;1.52;;;1.08;;
59239;SDS011;45010;53.640;10.578;2023-05-27T02:50:42;2.20;;;1.02;;
59239;SDS011;45010;53.640;10.578;2023-05-27T02:53:43;1.85;;;0.90;;
59239;SDS011;45010;53.640;10.578;2023-05-27T02:56:43;2.08;;;1.30;;
59239;SDS011;45010;53.640;10.578;2023-05-27T02:59:43;2.67;;;1.20;;
59239;SDS011;45010;53.640;10.578;2023-05-27T03:02:44;2.05;;;1.05;;
59239;SDS011;45010;53.640;10.578;2023-05-27T03:05:44;2.15;;;1.23;;
59239;SDS011;45010;53.640;10.578;2023-05-27T03:08:45;1.90;;;0.98;;
59239;SDS011;45010;53.640;10.578;2023-05-27T03:11:45;2.33;;;1.17;;
59239;SDS011;45010;53.640;10.578;2023-05-27T03:14:46;2.17;;;1.10;;
59239;SDS011;45010;53.640;10.578;2023-05-27T03:17:46;2.38;;;1.10;;
59239;SDS011;45010;53.640;10.578;2023-05-27T03:20:46;2.35;;;1.10;;
59239;SDS011;45010;53.640;10.578;2023-05-27T03:23:47;1.88;;;1.20;;
59239;SDS011;45010;53.640;10.578;2023-05-27T03:26:47;2.45;;;1.00;;
59239;SDS011;45010;53.640;10.578;2023-05-27T03:29:48;3.65;;;1.20;;
59239;SDS011;45010;53.640;10.578;2023-05-27T03:32:48;3.05;;;1.23;;
59239;SDS011;45010;53.640;10.578;2023-05-27T03:35:49;2.65;;;1.00;;
59239;SDS011;45010;53.640;10.578;2023-05-27T03:38:49;2.67;;;1.23;;
59239;SDS011;45010;53.640;10.578;2023-05-27T03:41:49;2.00;;;0.90;;
59239;SDS011;45010;53.640;10.578;2023-05-27T03:44:50;2.30;;;1.17;;
59239;SDS011;45010;53.640;10.578;2023-05-27T03:47:50;2.33;;;1.30;;
59239;SDS011;45010;53.640;10.578;2023-05-27T03:50:51;2.25;;;1.10;;
59239;SDS011;45010;53.640;10.578;2023-05-27T03:53:51;2.45;;;1.23;;
59239;SDS011;45010;53.640;10.578;2023-05-27T03:56:52;2.15;;;1.00;;
59239;SDS011;45010;53.640;10.578;2023-05-27T03:59:52;1.83;;;1.00;;
59239;SDS011;45010;53.640;10.578;2023-05-27T04:02:52;2.65;;;1.27;;
59239;SDS011;45010;53.640;10.578;2023-05-27T04:05:53;2.00;;;1.15;;
59239;SDS011;45010;53.640;10.578;2023-05-27T04:08:53;2.90;;;1.30;;
59239;SDS011;45010;53.640;10.578;2023-05-27T04:11:53;1.67;;;1.05;;
59239;SDS011;45010;53.640;10.578;2023-05-27T04:14:54;2.35;;;1.10;;
59239;SDS011;45010;53.640;10.578;2023-05-27T04:17:56;1.77;;;0.95;;
59239;SDS011;45010;53.640;10.578;2023-05-27T04:20:56;2.17;;;1.25;;
59239;SDS011;45010;53.640;10.578;2023-05-27T04:23:58;2.55;;;1.27;;
59239;SDS011;45010;53.640;10.578;2023-05-27T04:26:58;1.92;;;1.00;;
59239;SDS011;45010;53.640;10.578;2023-05-27T04:29:59;3.00;;;1.08;;
59239;SDS011;45010;53.640;10.578;2023-05-27T04:33:00;2.88;;;1.35;;
59239;SDS011;45010;53.640;10.578;2023-05-27T04:36:00;2.33;;;1.10;;
59239;SDS011;45010;53.640;10.578;2023-05-27T04:39:03;2.35;;;1.00;;
59239;SDS011;45010;53.640;10.578;2023-05-27T04:42:04;1.80;;;1.10;;
59239;SDS011;45010;53.640;10.578;2023-05-27T04:45:05;1.38;;;0.85;;
59239;SDS011;45010;53.640;10.578;2023-05-27T04:48:06;2.55;;;1.10;;
59239;SDS011;45010;53.640;10.578;2023-05-27T04:51:06;1.77;;;1.10;;
59239;SDS011;45010;53.640;10.578;2023-05-27T04:54:07;1.95;;;1.13;;
59239;SDS011;45010;53.640;10.578;2023-05-27T04:57:07;2.67;;;0.98;;
59239;SDS011;45010;53.640;10.578;2023-05-27T05:00:08;2.17;;;1.00;;
59239;SDS011;45010;53.640;10.578;2023-05-27T05:03:09;2.75;;;1.23;;
59239;SDS011;45010;53.640;10.578;2023-05-27T05:06:10;1.98;;;0.93;;
59239;SDS011;45010;53.640;10.578;2023-05-27T05:09:11;3.40;;;1.15;;
59239;SDS011;45010;53.640;10.578;2023-05-27T05:12:12;1.58;;;1.00;;
59239;SDS011;45010;53.640;10.578;2023-05-27T05:15:12;2.05;;;1.02;;
59239;SDS011;45010;53.640;10.578;2023-05-27T05:18:13;1.60;;;1.17;;
59239;SDS011;45010;53.640;10.578;2023-05-27T05:21:13;1.92;;;1.00;;
59239;SDS011;45010;53.640;10.578;2023-05-27T05:24:13;4.03;;;1.00;;
59239;SDS011;45010;53.640;10.578;2023-05-27T05:27:14;1.40;;;0.90;;
59239;SDS011;45010;53.640;10.578;2023-05-27T05:30:15;1.25;;;0.80;;
59239;SDS011;45010;53.640;10.578;2023-05-27T05:33:16;3.22;;;1.20;;
59239;SDS011;45010;53.640;10.578;2023-05-27T05:36:16;2.05;;;1.20;;
59239;SDS011;45010;53.640;10.578;2023-05-27T05:39:17;3.67;;;0.95;;
59239;SDS011;45010;53.640;10.578;2023-05-27T05:42:17;3.30;;;1.13;;
59239;SDS011;45010;53.640;10.578;2023-05-27T05:45:17;2.55;;;1.35;;
59239;SDS011;45010;53.640;10.578;2023-05-27T05:48:18;4.22;;;0.70;;
59239;SDS011;45010;53.640;10.578;2023-05-27T05:51:18;2.38;;;1.00;;
59239;SDS011;45010;53.640;10.578;2023-05-27T05:54:19;3.38;;;1.10;;
59239;SDS011;45010;53.640;10.578;2023-05-27T05:57:20;1.50;;;1.05;;
59239;SDS011;45010;53.640;10.578;2023-05-27T06:00:20;2.38;;;1.08;;
59239;SDS011;45010;53.640;10.578;2023-05-27T06:03:20;5.07;;;0.98;;
59239;SDS011;45010;53.640;10.578;2023-05-27T06:06:21;2.75;;;1.13;;
59239;SDS011;45010;53.640;10.578;2023-05-27T06:09:22;1.65;;;1.00;;
59239;SDS011;45010;53.640;10.578;2023-05-27T06:12:23;4.72;;;1.20;;
59239;SDS011;45010;53.640;10.578;2023-05-27T06:15:23;2.40;;;1.02;;
59239;SDS011;45010;53.640;10.578;2023-05-27T06:18:23;1.85;;;1.13;;
59239;SDS011;45010;53.640;10.578;2023-05-27T06:21:23;1.40;;;0.80;;
59239;SDS011;45010;53.640;10.578;2023-05-27T06:24:24;2.75;;;1.20;;
59239;SDS011;45010;53.640;10.578;2023-05-27T06:27:24;1.67;;;0.85;;
59239;SDS011;45010;53.640;10.578;2023-05-27T06:30:24;3.67;;;1.10;;
59239;SDS011;45010;53.640;10.578;2023-05-27T06:33:25;3.10;;;1.08;;
59239;SDS011;45010;53.640;10.578;2023-05-27T06:36:26;3.88;;;1.48;;
59239;SDS011;45010;53.640;10.578;2023-05-27T06:39:26;7.65;;;1.35;;
59239;SDS011;45010;53.640;10.578;2023-05-27T06:42:26;4.18;;;1.02;;
59239;SDS011;45010;53.640;10.578;2023-05-27T06:45:27;6.53;;;1.40;;
59239;SDS011;45010;53.640;10.578;2023-05-27T06:48:27;4.40;;;1.30;;
59239;SDS011;45010;53.640;10.578;2023-05-27T06:51:27;4.30;;;1.45;;
59239;SDS011;45010;53.640;10.578;2023-05-27T06:54:28;2.88;;;1.20;;
59239;SDS011;45010;53.640;10.578;2023-05-27T06:57:29;5.07;;;1.10;;
59239;SDS011;45010;53.640;10.578;2023-05-27T07:00:29;5.85;;;1.40;;
59239;SDS011;45010;53.640;10.578;2023-05-27T07:03:30;4.93;;;1.50;;
59239;SDS011;45010;53.640;10.578;2023-05-27T07:06:30;4.55;;;1.42;;
59239;SDS011;45010;53.640;10.578;2023-05-27T07:09:31;5.53;;;1.17;;
59239;SDS011;45010;53.640;10.578;2023-05-27T07:12:31;5.72;;;1.25;;
59239;SDS011;45010;53.640;10.578;2023-05-27T07:15:31;3.88;;;1.45;;
59239;SDS011;45010;53.640;10.578;2023-05-27T07:18:32;8.95;;;1.42;;
59239;SDS011;45010;53.640;10.578;2023-05-27T07:21:32;3.67;;;1.23;;
59239;SDS011;45010;53.640;10.578;2023-05-27T07:24:32;7.38;;;1.45;;
59239;SDS011;45010;53.640;10.578;2023-05-27T07:27:33;2.70;;;1.27;;
59239;SDS011;45010;53.640;10.578;2023-05-27T07:30:33;4.50;;;1.30;;
59239;SDS011;45010;53.640;10.578;2023-05-27T07:33:33;3.55;;;1.20;;
59239;SDS011;45010;53.640;10.578;2023-05-27T07:36:34;5.82;;;1.33;;
59239;SDS011;45010;53.640;10.578;2023-05-27T07:39:34;7.07;;;1.30;;
59239;SDS011;45010;53.640;10.578;2023-05-27T07:42:35;5.38;;;1.42;;
59239;SDS011;45010;53.640;10.578;2023-05-27T07:45:36;4.53;;;1.38;;
59239;SDS011;45010;53.640;10.578;2023-05-27T07:48:36;9.43;;;1.70;;
59239;SDS011;45010;53.640;10.578;2023-05-27T07:51:36;2.55;;;1.35;;
59239;SDS011;45010;53.640;10.578;2023-05-27T07:54:37;7.63;;;1.33;;
59239;SDS011;45010;53.640;10.578;2023-05-27T07:57:37;6.18;;;1.92;;
59239;SDS011;45010;53.640;10.578;2023-05-27T08:00:37;5.82;;;1.73;;
59239;SDS011;45010;53.640;10.578;2023-05-27T08:03:38;8.05;;;2.75;;
59239;SDS011;45010;53.640;10.578;2023-05-27T08:06:38;3.58;;;1.42;;
59239;SDS011;45010;53.640;10.578;2023-05-27T08:09:38;7.90;;;2.30;;
59239;SDS011;45010;53.640;10.578;2023-05-27T08:12:39;5.50;;;2.25;;
59239;SDS011;45010;53.640;10.578;2023-05-27T08:15:39;8.05;;;2.80;;
59239;SDS011;45010;53.640;10.578;2023-05-27T08:18:39;4.90;;;1.77;;
59239;SDS011;45010;53.640;10.578;2023-05-27T08:21:40;7.38;;;1.95;;
59239;SDS011;45010;53.640;10.578;2023-05-27T08:24:40;9.65;;;2.00;;
59239;SDS011;45010;53.640;10.578;2023-05-27T08:27:48;7.28;;;2.28;;
59239;SDS011;45010;53.640;10.578;2023-05-27T08:30:51;7.80;;;2.53;;
59239;SDS011;45010;53.640;10.578;2023-05-27T08:33:51;7.22;;;2.28;;
59239;SDS011;45010;53.640;10.578;2023-05-27T08:36:51;9.30;;;2.35;;
59239;SDS011;45010;53.640;10.578;2023-05-27T08:39:51;5.47;;;2.30;;
59239;SDS011;45010;53.640;10.578;2023-05-27T08:42:52;8.77;;;2.40;;
59239;SDS011;45010;53.640;10.578;2023-05-27T08:45:52;7.15;;;2.40;;
59239;SDS011;45010;53.640;10.578;2023-05-27T08:48:53;6.03;;;2.38;;
59239;SDS011;45010;53.640;10.578;2023-05-27T08:51:55;7.82;;;2.42;;
59239;SDS011;45010;53.640;10.578;2023-05-27T08:55:00;8.63;;;2.38;;
59239;SDS011;45010;53.640;10.578;2023-05-27T08:58:01;6.57;;;2.33;;
59239;SDS011;45010;53.640;10.578;2023-05-27T09:01:01;6.97;;;2.50;;
59239;SDS011;45010;53.640;10.578;2023-05-27T09:04:02;8.07;;;2.50;;
59239;SDS011;45010;53.640;10.578;2023-05-27T09:07:03;6.45;;;2.53;;
59239;SDS011;45010;53.640;10.578;2023-05-27T09:10:04;5.88;;;2.33;;
59239;SDS011;45010;53.640;10.578;2023-05-27T09:13:06;8.77;;;2.70;;
59239;SDS011;45010;53.640;10.578;2023-05-27T09:16:07;9.10;;;2.88;;
59239;SDS011;45010;53.640;10.578;2023-05-27T09:19:14;7.03;;;2.63;;
59239;SDS011;45010;53.640;10.578;2023-05-27T09:22:21;10.68;;;3.42;;
59239;SDS011;45010;53.640;10.578;2023-05-27T09:25:26;7.65;;;3.45;;
59239;SDS011;45010;53.640;10.578;2023-05-27T09:28:27;9.00;;;2.53;;
59239;SDS011;45010;53.640;10.578;2023-05-27T09:31:28;9.93;;;2.95;;
59239;SDS011;45010;53.640;10.578;2023-05-27T09:34:28;10.20;;;3.50;;
59239;SDS011;45010;53.640;10.578;2023-05-27T09:37:30;13.55;;;3.28;;
59239;SDS011;45010;53.640;10.578;2023-05-27T09:40:35;6.10;;;2.78;;
59239;SDS011;45010;53.640;10.578;2023-05-27T09:43:36;9.13;;;3.08;;
59239;SDS011;45010;53.640;10.578;2023-05-27T09:46:37;10.00;;;2.65;;
59239;SDS011;45010;53.640;10.578;2023-05-27T09:49:38;7.10;;;2.50;;
59239;SDS011;45010;53.640;10.578;2023-05-27T09:52:39;8.55;;;2.83;;
59239;SDS011;45010;53.640;10.578;2023-05-27T09:55:44;7.70;;;2.55;;
59239;SDS011;45010;53.640;10.578;2023-05-27T09:58:45;8.10;;;2.75;;
59239;SDS011;45010;53.640;10.578;2023-05-27T10:01:46;9.00;;;2.80;;
59239;SDS011;45010;53.640;10.578;2023-05-27T10:04:47;5.53;;;2.40;;
59239;SDS011;45010;53.640;10.578;2023-05-27T10:07:49;5.88;;;2.90;;
59239;SDS011;45010;53.640;10.578;2023-05-27T10:10:49;8.00;;;2.78;;
59239;SDS011;45010;53.640;10.578;2023-05-27T10:13:49;9.75;;;3.40;;
59239;SDS011;45010;53.640;10.578;2023-05-27T10:16:55;8.30;;;3.15;;
59239;SDS011;45010;53.640;10.578;2023-05-27T10:19:56;9.38;;;3.03;;
59239;SDS011;45010;53.640;10.578;2023-05-27T10:23:12;9.70;;;3.50;;
59239;SDS011;45010;53.640;10.578;2023-05-27T10:26:17;6.82;;;2.92;;
59239;SDS011;45010;53.640;10.578;2023-05-27T10:29:18;9.75;;;2.83;;
59239;SDS011;45010;53.640;10.578;2023-05-27T10:32:18;6.32;;;2.65;;
59239;SDS011;45010;53.640;10.578;2023-05-27T10:35:18;5.15;;;2.50;;
59239;SDS011;45010;53.640;10.578;2023-05-27T10:38:19;7.75;;;2.40;;
59239;SDS011;45010;53.640;10.578;2023-05-27T10:41:19;10.00;;;2.85;;
59239;SDS011;45010;53.640;10.578;2023-05-27T10:47:28;10.18;;;3.00;;
59239;SDS011;45010;53.640;10.578;2023-05-27T10:50:30;7.32;;;2.72;;
59239;SDS011;45010;53.640;10.578;2023-05-27T10:53:35;9.02;;;3.33;;
59239;SDS011;45010;53.640;10.578;2023-05-27T10:56:37;10.25;;;3.25;;
59239;SDS011;45010;53.640;10.578;2023-05-27T11:02:55;11.23;;;2.90;;
59239;SDS011;45010;53.640;10.578;2023-05-27T11:09:06;9.38;;;2.92;;
59239;SDS011;45010;53.640;10.578;2023-05-27T11:12:07;8.27;;;2.90;;
59239;SDS011;45010;53.640;10.578;2023-05-27T11:15:07;7.65;;;3.03;;
59239;SDS011;45010;53.640;10.578;2023-05-27T11:18:08;5.82;;;2.80;;
59239;SDS011;45010;53.640;10.578;2023-05-27T11:21:09;7.32;;;2.83;;
59239;SDS011;45010;53.640;10.578;2023-05-27T11:24:17;5.63;;;3.00;;
59239;SDS011;45010;53.640;10.578;2023-05-27T11:27:18;4.93;;;2.60;;
59239;SDS011;45010;53.640;10.578;2023-05-27T11:30:22;5.68;;;2.85;;
59239;SDS011;45010;53.640;10.578;2023-05-27T11:33:33;10.02;;;2.70;;
59239;SDS011;45010;53.640;10.578;2023-05-27T11:36:35;6.15;;;2.28;;
59239;SDS011;45010;53.640;10.578;2023-05-27T11:39:36;8.13;;;3.00;;
59239;SDS011;45010;53.640;10.578;2023-05-27T11:42:36;8.23;;;2.60;;
59239;SDS011;45010;53.640;10.578;2023-05-27T11:45:37;4.50;;;2.80;;
59239;SDS011;45010;53.640;10.578;2023-05-27T11:48:37;6.22;;;2.35;;
59239;SDS011;45010;53.640;10.578;2023-05-27T11:51:41;5.82;;;2.50;;
59239;SDS011;45010;53.640;10.578;2023-05-27T11:54:43;5.63;;;2.22;;
59239;SDS011;45010;53.640;10.578;2023-05-27T11:57:43;6.30;;;2.95;;
59239;SDS011;45010;53.640;10.578;2023-05-27T12:00:43;7.80;;;2.67;;
59239;SDS011;45010;53.640;10.578;2023-05-27T12:03:45;5.63;;;2.55;;
59239;SDS011;45010;53.640;10.578;2023-05-27T12:06:45;6.25;;;2.28;;
59239;SDS011;45010;53.640;10.578;2023-05-27T12:09:47;4.00;;;2.35;;
59239;SDS011;45010;53.640;10.578;2023-05-27T12:12:48;5.50;;;2.50;;
59239;SDS011;45010;53.640;10.578;2023-05-27T12:15:49;5.25;;;2.65;;
59239;SDS011;45010;53.640;10.578;2023-05-27T12:18:50;6.25;;;2.50;;
59239;SDS011;45010;53.640;10.578;2023-05-27T12:21:50;4.43;;;2.25;;
59239;SDS011;45010;53.640;10.578;2023-05-27T12:24:51;5.65;;;2.15;;
59239;SDS011;45010;53.640;10.578;2023-05-27T12:27:51;6.10;;;2.38;;
59239;SDS011;45010;53.640;10.578;2023-05-27T12:30:52;5.53;;;2.58;;
59239;SDS011;45010;53.640;10.578;2023-05-27T12:33:52;5.30;;;2.42;;
59239;SDS011;45010;53.640;10.578;2023-05-27T12:36:52;3.58;;;1.90;;
59239;SDS011;45010;53.640;10.578;2023-05-27T12:39:53;3.67;;;2.00;;
59239;SDS011;45010;53.640;10.578;2023-05-27T12:42:53;4.45;;;1.98;;
59239;SDS011;45010;53.640;10.578;2023-05-27T12:45:53;6.00;;;2.22;;
59239;SDS011;45010;53.640;10.578;2023-05-27T12:48:54;5.95;;;2.33;;
59239;SDS011;45010;53.640;10.578;2023-05-27T12:51:54;3.92;;;2.20;;
59239;SDS011;45010;53.640;10.578;2023-05-27T12:54:55;4.97;;;2.30;;
59239;SDS011;45010;53.640;10.578;2023-05-27T12:57:55;3.30;;;2.15;;
59239;SDS011;45010;53.640;10.578;2023-05-27T13:00:55;3.90;;;2.00;;
59239;SDS011;45010;53.640;10.578;2023-05-27T13:03:56;4.47;;;2.10;;
59239;SDS011;45010;53.640;10.578;2023-05-27T13:06:56;5.45;;;2.28;;
59239;SDS011;45010;53.640;10.578;2023-05-27T13:10:00;3.58;;;2.10;;
59239;SDS011;45010;53.640;10.578;2023-05-27T13:13:01;4.80;;;2.53;;
59239;SDS011;45010;53.640;10.578;2023-05-27T13:16:02;4.40;;;2.17;;
59239;SDS011;45010;53.640;10.578;2023-05-27T13:19:02;3.95;;;1.85;;
59239;SDS011;45010;53.640;10.578;2023-05-27T13:22:03;4.80;;;2.20;;
59239;SDS011;45010;53.640;10.578;2023-05-27T13:25:03;3.08;;;1.80;;
59239;SDS011;45010;53.640;10.578;2023-05-27T13:28:04;3.15;;;1.85;;
59239;SDS011;45010;53.640;10.578;2023-05-27T13:31:05;4.28;;;2.10;;
59239;SDS011;45010;53.640;10.578;2023-05-27T13:34:05;3.53;;;1.83;;
59239;SDS011;45010;53.640;10.578;2023-05-27T13:37:05;4.30;;;1.88;;
59239;SDS011;45010;53.640;10.578;2023-05-27T13:40:06;4.65;;;1.58;;
59239;SDS011;45010;53.640;10.578;2023-05-27T13:43:08;6.07;;;2.58;;
59239;SDS011;45010;53.640;10.578;2023-05-27T13:46:08;4.50;;;1.90;;
59239;SDS011;45010;53.640;10.578;2023-05-27T13:49:09;2.67;;;1.80;;
59239;SDS011;45010;53.640;10.578;2023-05-27T13:52:09;3.33;;;1.70;;
59239;SDS011;45010;53.640;10.578;2023-05-27T13:55:09;3.30;;;1.67;;
59239;SDS011;45010;53.640;10.578;2023-05-27T13:58:09;3.60;;;2.03;;
59239;SDS011;45010;53.640;10.578;2023-05-27T14:01:10;2.90;;;1.30;;
59239;SDS011;45010;53.640;10.578;2023-05-27T14:04:11;3.80;;;1.90;;
59239;SDS011;45010;53.640;10.578;2023-05-27T14:07:11;3.22;;;1.60;;
59239;SDS011;45010;53.640;10.578;2023-05-27T14:10:12;3.15;;;1.80;;
59239;SDS011;45010;53.640;10.578;2023-05-27T14:13:12;2.20;;;1.42;;
59239;SDS011;45010;53.640;10.578;2023-05-27T14:16:13;2.38;;;1.70;;
59239;SDS011;45010;53.640;10.578;2023-05-27T14:19:14;3.33;;;1.80;;
59239;SDS011;45010;53.640;10.578;2023-05-27T14:22:14;3.10;;;1.67;;
59239;SDS011;45010;53.640;10.578;2023-05-27T14:25:15;2.58;;;1.33;;
59239;SDS011;45010;53.640;10.578;2023-05-27T14:28:15;3.13;;;1.85;;
59239;SDS011;45010;53.640;10.578;2023-05-27T14:31:16;2.75;;;1.80;;
59239;SDS011;45010;53.640;10.578;2023-05-27T14:34:17;2.75;;;1.58;;
59239;SDS011;45010;53.640;10.578;2023-05-27T14:37:17;2.10;;;1.30;;
59239;SDS011;45010;53.640;10.578;2023-05-27T14:40:18;2.20;;;1.45;;
59239;SDS011;45010;53.640;10.578;2023-05-27T14:43:18;2.53;;;1.52;;
59239;SDS011;45010;53.640;10.578;2023-05-27T14:46:19;4.18;;;1.98;;
59239;SDS011;45010;53.640;10.578;2023-05-27T14:49:19;2.88;;;1.52;;
59239;SDS011;45010;53.640;10.578;2023-05-27T14:52:19;2.72;;;1.67;;
59239;SDS011;45010;53.640;10.578;2023-05-27T14:55:20;5.38;;;1.90;;
59239;SDS011;45010;53.640;10.578;2023-05-27T14:58:20;3.80;;;1.92;;
59239;SDS011;45010;53.640;10.578;2023-05-27T15:01:20;6.93;;;2.05;;
59239;SDS011;45010;53.640;10.578;2023-05-27T15:04:21;5.65;;;1.63;;
59239;SDS011;45010;53.640;10.578;2023-05-27T15:07:21;7.05;;;2.22;;
59239;SDS011;45010;53.640;10.578;2023-05-27T15:10:22;7.03;;;1.98;;
59239;SDS011;45010;53.640;10.578;2023-05-27T15:13:23;7.28;;;2.28;;
59239;SDS011;45010;53.640;10.578;2023-05-27T15:16:23;6.20;;;2.35;;
59239;SDS011;45010;53.640;10.578;2023-05-27T15:19:23;7.22;;;2.85;;
59239;SDS011;45010;53.640;10.578;2023-05-27T15:22:24;6.22;;;2.30;;
59239;SDS011;45010;53.640;10.578;2023-05-27T15:25:24;8.45;;;2.85;;
59239;SDS011;45010;53.640;10.578;2023-05-27T15:28:24;6.25;;;2.33;;
59239;SDS011;45010;53.640;10.578;2023-05-27T15:31:25;6.60;;;2.40;;
59239;SDS011;45010;53.640;10.578;2023-05-27T15:34:25;8.68;;;2.80;;
59239;SDS011;45010;53.640;10.578;2023-05-27T15:37:26;5.38;;;2.45;;
59239;SDS011;45010;53.640;10.578;2023-05-27T15:40:26;7.47;;;3.03;;
59239;SDS011;45010;53.640;10.578;2023-05-27T15:43:26;7.28;;;2.70;;
59239;SDS011;45010;53.640;10.578;2023-05-27T15:46:27;6.93;;;2.60;;
59239;SDS011;45010;53.640;10.578;2023-05-27T15:49:27;8.38;;;2.55;;
59239;SDS011;45010;53.640;10.578;2023-05-27T15:52:27;5.50;;;2.75;;
59239;SDS011;45010;53.640;10.578;2023-05-27T15:55:28;5.25;;;2.53;;
59239;SDS011;45010;53.640;10.578;2023-05-27T15:58:28;7.65;;;2.80;;
59239;SDS011;45010;53.640;10.578;2023-05-27T16:01:28;5.65;;;2.53;;
59239;SDS011;45010;53.640;10.578;2023-05-27T16:04:29;6.82;;;2.20;;
59239;SDS011;45010;53.640;10.578;2023-05-27T16:07:30;4.90;;;1.92;;
59239;SDS011;45010;53.640;10.578;2023-05-27T16:10:30;6.70;;;2.50;;
59239;SDS011;45010;53.640;10.578;2023-05-27T16:13:30;5.13;;;2.15;;
59239;SDS011;45010;53.640;10.578;2023-05-27T16:16:31;5.22;;;2.30;;
59239;SDS011;45010;53.640;10.578;2023-05-27T16:19:32;5.53;;;2.40;;
59239;SDS011;45010;53.640;10.578;2023-05-27T16:22:32;4.22;;;2.35;;
59239;SDS011;45010;53.640;10.578;2023-05-27T16:25:33;5.53;;;2.40;;
59239;SDS011;45010;53.640;10.578;2023-05-27T16:28:34;7.25;;;2.50;;
59239;SDS011;45010;53.640;10.578;2023-05-27T16:31:35;8.68;;;2.70;;
59239;SDS011;45010;53.640;10.578;2023-05-27T16:34:35;7.85;;;2.90;;
59239;SDS011;45010;53.640;10.578;2023-05-27T16:37:35;8.13;;;2.30;;
59239;SDS011;45010;53.640;10.578;2023-05-27T16:40:37;7.10;;;2.75;;
59239;SDS011;45010;53.640;10.578;2023-05-27T16:43:38;6.10;;;2.83;;
59239;SDS011;45010;53.640;10.578;2023-05-27T16:46:38;8.27;;;2.45;;
59239;SDS011;45010;53.640;10.578;2023-05-27T16:49:38;6.03;;;2.63;;
59239;SDS011;45010;53.640;10.578;2023-05-27T16:52:39;8.55;;;3.13;;
59239;SDS011;45010;53.640;10.578;2023-05-27T16:55:39;7.88;;;2.40;;
59239;SDS011;45010;53.640;10.578;2023-05-27T16:58:40;5.85;;;2.33;;
59239;SDS011;45010;53.640;10.578;2023-05-27T17:01:40;10.43;;;2.55;;
59239;SDS011;45010;53.640;10.578;2023-05-27T17:04:41;6.68;;;2.60;;
59239;SDS011;45010;53.640;10.578;2023-05-27T17:07:41;6.50;;;2.55;;
59239;SDS011;45010;53.640;10.578;2023-05-27T17:10:41;5.97;;;2.10;;
59239;SDS011;45010;53.640;10.578;2023-05-27T17:13:42;6.40;;;2.30;;
59239;SDS011;45010;53.640;10.578;2023-05-27T17:16:42;7.90;;;2.55;;
59239;SDS011;45010;53.640;10.578;2023-05-27T17:19:43;6.05;;;2.15;;
59239;SDS011;45010;53.640;10.578;2023-05-27T17:22:45;4.85;;;2.05;;
59239;SDS011;45010;53.640;10.578;2023-05-27T17:25:46;6.13;;;2.22;;
59239;SDS011;45010;53.640;10.578;2023-05-27T17:28:46;5.25;;;2.17;;
59239;SDS011;45010;53.640;10.578;2023-05-27T17:31:46;3.20;;;1.83;;
59239;SDS011;45010;53.640;10.578;2023-05-27T17:34:46;4.45;;;2.40;;
59239;SDS011;45010;53.640;10.578;2023-05-27T17:37:47;6.35;;;2.10;;
59239;SDS011;45010;53.640;10.578;2023-05-27T17:40:48;5.28;;;1.95;;
59239;SDS011;45010;53.640;10.578;2023-05-27T17:43:48;2.78;;;1.73;;
59239;SDS011;45010;53.640;10.578;2023-05-27T17:46:48;5.32;;;1.83;;
59239;SDS011;45010;53.640;10.578;2023-05-27T17:49:48;5.03;;;2.22;;
59239;SDS011;45010;53.640;10.578;2023-05-27T17:52:49;2.88;;;1.95;;
59239;SDS011;45010;53.640;10.578;2023-05-27T17:55:49;3.65;;;2.08;;
59239;SDS011;45010;53.640;10.578;2023-05-27T17:58:49;4.05;;;1.90;;
59239;SDS011;45010;53.640;10.578;2023-05-27T18:01:50;3.63;;;1.90;;
59239;SDS011;45010;53.640;10.578;2023-05-27T18:04:50;6.57;;;2.00;;